Time;durP1;ratioP1;P1;durP2;ratioP2;P2;SDS_P1;SDS_P2;PMS_P1;PMS_P2;Temp;Humidity;BMP_temperature;BMP_pressure;BME280_temperature;BME280_humidity;BME280_pressure;Samples;Min_cycle;Max_cycle;Signal;HPM_P1;HPM_P2
2022/12/06 00:01:28;;;;;;;16.73;13.65;;;11.30;96.00;;;;;;6213948;23;20354;-84
2022/12/06 00:03:56;;;;;;;16.98;13.50;;;11.30;96.00;;;;;;6213189;23;20297;-84
2022/12/06 00:06:26;;;;;;;21.50;17.48;;;11.30;96.00;;;;;;6214118;23;20423;-85
2022/12/06 00:08:53;;;;;;;17.40;14.38;;;11.20;96.00;;;;;;6214249;23;20319;-83
2022/12/06 00:11:23;;;;;;;17.52;14.65;;;11.20;96.00;;;;;;6213987;23;20004;-82
2022/12/06 00:14:04;;;;;;;16.98;14.07;;;11.20;96.00;;;;;;6213817;23;20312;-82
2022/12/06 00:16:31;;;;;;;16.65;14.07;;;11.20;96.20;;;;;;6171277;23;20025;-83
2022/12/06 00:18:59;;;;;;;19.10;14.95;;;11.30;96.20;;;;;;6183375;23;20414;-83
2022/12/06 00:21:42;;;;;;;16.67;14.15;;;11.30;96.20;;;;;;6157151;23;20076;-83
2022/12/06 00:24:13;;;;;;;18.65;14.35;;;11.30;95.90;;;;;;6157675;23;20040;-82
2022/12/06 00:26:42;;;;;;;18.88;15.32;;;11.30;95.90;;;;;;6156642;23;20320;-81
2022/12/06 00:29:13;;;;;;;18.50;14.85;;;11.30;95.70;;;;;;6182313;23;20072;-82
2022/12/06 00:31:39;;;;;;;21.20;16.50;;;;;;;;;;6181293;23;20264;-81
2022/12/06 00:34:05;;;;;;;23.05;16.90;;;11.10;95.60;;;;;;6180679;23;20001;-82
2022/12/06 00:36:34;;;;;;;18.33;15.00;;;11.10;95.60;;;;;;6182893;23;20028;-83
2022/12/06 00:39:02;;;;;;;19.58;15.32;;;11.10;95.70;;;;;;6183895;23;20019;-83
2022/12/06 00:41:28;;;;;;;17.35;14.52;;;;;;;;;;6183337;23;20012;-83
2022/12/06 00:43:54;;;;;;;21.05;17.10;;;11.10;95.70;;;;;;6184257;23;20021;-82
2022/12/06 00:46:23;;;;;;;19.23;15.20;;;11.10;95.80;;;;;;6183792;23;20005;-81
2022/12/06 00:48:52;;;;;;;18.52;14.68;;;11.00;95.90;;;;;;6183926;23;20001;-81
2022/12/06 00:51:21;;;;;;;18.38;14.82;;;11.00;95.80;;;;;;6183300;23;20507;-80
2022/12/06 00:53:48;;;;;;;18.50;15.60;;;11.00;96.00;;;;;;6184213;23;20020;-82
2022/12/06 00:56:15;;;;;;;17.05;14.82;;;11.10;96.00;;;;;;6184052;23;20347;-82
2022/12/06 00:58:41;;;;;;;19.25;15.48;;;11.00;95.80;;;;;;6183532;23;20009;-82
2022/12/06 01:01:14;;;;;;;17.17;14.70;;;11.00;95.80;;;;;;6184249;23;20762;-82
2022/12/06 01:03:42;;;;;;;19.00;16.05;;;11.00;95.80;;;;;;6184568;23;20067;-82
2022/12/06 01:06:11;;;;;;;20.65;15.90;;;11.00;95.70;;;;;;6183451;23;20064;-82
2022/12/06 01:08:39;;;;;;;18.85;15.40;;;11.00;95.70;;;;;;6156766;23;20005;-82
2022/12/06 01:11:07;;;;;;;21.00;15.40;;;11.00;95.70;;;;;;6183340;23;19997;-83
2022/12/06 01:13:33;;;;;;;19.88;16.13;;;11.00;95.70;;;;;;6184629;23;20001;-83
2022/12/06 01:16:05;;;;;;;19.33;15.80;;;;;;;;;;6192410;23;20020;-83
2022/12/06 01:18:31;;;;;;;21.63;15.90;;;11.00;95.50;;;;;;6212815;23;20028;-83
2022/12/06 01:21:02;;;;;;;17.52;14.88;;;10.90;95.50;;;;;;6212881;23;20477;-83
2022/12/06 01:23:28;;;;;;;20.05;15.40;;;10.90;95.50;;;;;;6213363;23;20008;-82
2022/12/06 01:25:54;;;;;;;17.10;14.32;;;10.90;95.60;;;;;;6213757;23;20005;-84
2022/12/06 01:28:19;;;;;;;20.75;16.80;;;10.90;95.60;;;;;;6213664;23;20062;-83
2022/12/06 01:30:45;;;;;;;19.58;15.65;;;10.80;95.60;;;;;;6210938;23;20035;-84
2022/12/06 01:33:11;;;;;;;19.10;16.00;;;10.90;95.60;;;;;;6212093;23;20004;-83
2022/12/06 01:35:40;;;;;;;20.08;15.90;;;10.90;95.50;;;;;;6210636;23;20459;-83
2022/12/06 01:38:06;;;;;;;18.38;15.73;;;10.90;95.40;;;;;;6213374;23;20012;-82
2022/12/06 01:40:40;;;;;;;20.65;15.55;;;10.90;95.30;;;;;;6188449;23;20000;-83
2022/12/06 01:43:28;;;;;;;18.05;14.68;;;10.80;95.20;;;;;;6215984;23;20001;-84
2022/12/06 01:45:54;;;;;;;21.17;16.67;;;10.90;95.20;;;;;;6216123;23;20001;-83
2022/12/06 01:48:23;;;;;;;19.02;15.95;;;10.80;95.20;;;;;;6215054;23;20005;-83
2022/12/06 01:50:49;;;;;;;18.20;14.65;;;10.80;95.10;;;;;;6215219;23;20011;-84
2022/12/06 01:53:14;;;;;;;18.75;15.82;;;10.90;95.40;;;;;;6214681;23;20071;-83
2022/12/06 01:55:40;;;;;;;18.77;15.35;;;10.80;95.40;;;;;;6215939;23;20005;-83
2022/12/06 01:58:14;;;;;;;19.75;15.90;;;10.70;95.30;;;;;;6215480;23;19996;-83
2022/12/06 02:00:40;;;;;;;21.90;17.30;;;10.70;95.40;;;;;;6216353;23;20000;-83
2022/12/06 02:03:09;;;;;;;18.50;14.60;;;10.80;95.40;;;;;;6215807;23;20071;-83
2022/12/06 02:05:37;;;;;;;17.50;14.73;;;10.80;95.40;;;;;;6215017;23;20027;-83
2022/12/06 02:08:03;;;;;;;22.15;16.88;;;10.70;95.30;;;;;;6216065;23;20001;-83
2022/12/06 02:10:30;;;;;;;20.90;16.40;;;10.80;95.30;;;;;;6215477;23;20580;-84
2022/12/06 02:12:57;;;;;;;23.65;17.48;;;10.70;95.30;;;;;;6215211;23;20024;-85
2022/12/06 02:15:35;;;;;;;20.02;16.13;;;10.70;95.30;;;;;;6214945;23;19997;-83
2022/12/06 02:18:12;;;;;;;20.77;16.20;;;10.70;95.40;;;;;;6216354;23;20336;-82
2022/12/06 02:20:45;;;;;;;20.27;16.25;;;10.60;95.30;;;;;;6214348;23;20386;-83
2022/12/06 02:23:41;;;;;;;20.98;16.00;;;10.60;95.30;;;;;;6214897;23;20378;-83
2022/12/06 02:26:09;;;;;;;20.77;15.52;;;10.60;95.40;;;;;;6215056;23;20033;-83
2022/12/06 02:29:15;;;;;;;20.23;15.93;;;10.50;95.40;;;;;;6215676;23;20316;-85
2022/12/06 02:31:53;;;;;;;21.50;16.38;;;10.50;95.40;;;;;;6214930;23;20080;-83
2022/12/06 02:34:31;;;;;;;24.20;17.58;;;10.50;95.30;;;;;;6212469;23;20080;-82
2022/12/06 02:37:08;;;;;;;18.42;15.05;;;10.50;95.30;;;;;;6214000;23;20004;-82
2022/12/06 02:39:58;;;;;;;20.83;15.93;;;10.50;95.40;;;;;;6215371;23;20032;-82
2022/12/06 02:42:39;;;;;;;20.45;15.07;;;10.50;95.40;;;;;;6215133;23;20012;-84
2022/12/06 02:45:18;;;;;;;22.42;17.85;;;10.40;95.40;;;;;;6215668;23;20467;-83
2022/12/06 02:47:46;;;;;;;18.63;14.77;;;10.50;95.60;;;;;;6215964;23;20016;-84
2022/12/06 02:50:18;;;;;;;24.52;15.88;;;10.40;95.20;;;;;;6214490;23;19997;-83
2022/12/06 02:52:48;;;;;;;36.85;15.20;;;10.40;95.50;;;;;;6215120;23;20277;-83
2022/12/06 02:55:15;;;;;;;;;;;10.20;95.50;;;;;;6187913;23;20380;-82
2022/12/06 02:57:47;;;;;;;120.10;17.20;;;10.20;95.60;;;;;;6214770;23;20369;-83
2022/12/06 03:00:42;;;;;;;48.95;14.18;;;10.00;95.50;;;;;;6215834;23;20089;-83
2022/12/06 03:03:26;;;;;;;24.25;12.70;;;10.00;95.70;;;;;;6214210;23;20495;-83
2022/12/06 03:06:01;;;;;;;37.42;12.77;;;10.00;95.80;;;;;;6215753;23;20043;-83
2022/12/06 03:08:41;;;;;;;148.27;19.10;;;9.90;95.80;;;;;;6214348;23;20068;-82
2022/12/06 03:11:07;;;;;;;;;;;9.70;96.00;;;;;;6216148;23;20001;-82
2022/12/06 03:13:36;;;;;;;63.67;14.65;;;9.70;96.00;;;;;;6214460;23;19934;-82
2022/12/06 03:16:20;;;;;;;25.35;13.85;;;9.70;96.00;;;;;;6214204;23;20036;-82
2022/12/06 03:19:02;;;;;;;29.92;13.32;;;9.60;96.30;;;;;;6215616;23;20048;-83
2022/12/06 03:21:40;;;;;;;50.28;14.48;;;9.50;96.30;;;;;;6215090;23;20411;-85
2022/12/06 03:24:12;;;;;;;19.00;13.45;;;9.50;96.20;;;;;;6214917;23;20000;-84
2022/12/06 03:26:38;;;;;;;42.70;14.30;;;9.50;96.40;;;;;;6214687;23;20028;-84
2022/12/06 03:29:07;;;;;;;25.92;12.40;;;9.50;96.50;;;;;;6214433;23;20001;-84
2022/12/06 03:31:37;;;;;;;40.70;15.23;;;9.50;96.40;;;;;;6213939;23;20001;-83
2022/12/06 03:34:10;;;;;;;22.33;13.98;;;9.50;96.50;;;;;;6211812;23;20079;-84
2022/12/06 03:36:37;;;;;;;90.13;16.52;;;9.40;96.40;;;;;;6211459;23;20451;-84
2022/12/06 03:39:05;;;;;;;67.75;17.83;;;9.40;96.70;;;;;;6215138;23;20375;-81
2022/12/06 03:41:47;;;;;;;111.57;19.95;;;9.30;96.80;;;;;;6214478;23;20048;-82
2022/12/06 03:44:13;;;;;;;19.23;13.88;;;9.30;96.70;;;;;;6214332;23;20428;-82
2022/12/06 03:46:46;;;;;;;20.52;13.73;;;9.30;96.70;;;;;;6213149;23;20019;-83
2022/12/06 03:49:18;;;;;;;19.77;12.57;;;9.40;96.60;;;;;;6187885;23;20005;-84
2022/12/06 03:51:45;;;;;;;43.45;14.23;;;9.40;96.80;;;;;;6214621;23;20001;-83
2022/12/06 03:54:10;;;;;;;20.90;13.70;;;9.40;96.70;;;;;;6215170;23;20078;-84
2022/12/06 03:56:37;;;;;;;64.72;17.33;;;9.50;96.60;;;;;;6213320;23;20004;-84
2022/12/06 03:59:07;;;;;;;17.02;13.27;;;9.40;96.40;;;;;;6214140;23;20011;-83
2022/12/06 04:01:33;;;;;;;124.82;18.45;;;9.40;96.40;;;;;;6213117;23;20000;-84
2022/12/06 04:03:59;;;;;;;19.83;13.32;;;9.30;96.60;;;;;;6215091;23;20055;-83
2022/12/06 04:06:26;;;;;;;19.23;13.63;;;9.40;96.70;;;;;;6214883;23;20055;-83
2022/12/06 04:08:52;;;;;;;20.25;15.20;;;9.40;96.80;;;;;;6214806;23;20072;-83
2022/12/06 04:11:17;;;;;;;63.38;16.50;;;9.50;96.90;;;;;;6215069;23;20035;-87
2022/12/06 04:13:43;;;;;;;85.60;18.90;;;9.50;96.70;;;;;;6215159;23;20004;-87
2022/12/06 04:18:54;;;;;;;29.83;15.90;;;9.60;96.70;;;;;;6215978;23;20061;-87
2022/12/06 04:23:59;;;;;;;24.00;14.32;;;9.40;96.60;;;;;;6217578;23;20492;-87
2022/12/06 04:26:25;;;;;;;41.28;16.50;;;9.50;96.90;;;;;;6215775;23;20000;-87
2022/12/06 04:39:52;;;;;;;19.38;12.57;;;9.20;96.80;;;;;;6214758;23;20049;-85
2022/12/06 04:45:04;;;;;;;34.30;13.52;;;9.30;96.40;;;;;;6213960;23;20020;-83
2022/12/06 04:47:30;;;;;;;68.40;16.05;;;9.40;96.40;;;;;;6213951;23;20008;-85
2022/12/06 04:49:55;;;;;;;25.00;14.82;;;9.20;96.00;;;;;;6213849;23;20430;-84
2022/12/06 04:52:21;;;;;;;29.17;13.75;;;9.10;96.40;;;;;;6214994;23;20166;-86
2022/12/06 04:54:47;;;;;;;36.85;12.88;;;9.20;96.70;;;;;;6214726;23;20305;-85
2022/12/06 04:57:15;;;;;;;45.38;15.50;;;9.10;96.60;;;;;;6213192;23;20004;-83
2022/12/06 04:59:43;;;;;;;68.22;17.30;;;9.10;96.50;;;;;;6214414;23;20004;-83
2022/12/06 05:02:12;;;;;;;15.27;11.45;;;9.00;96.70;;;;;;6213528;23;20750;-84
2022/12/06 05:04:38;;;;;;;49.72;14.82;;;9.00;96.60;;;;;;6214773;23;20031;-85
2022/12/06 05:07:04;;;;;;;43.42;15.82;;;8.90;96.90;;;;;;6214220;23;20001;-85
2022/12/06 05:09:29;;;;;;;16.77;12.10;;;8.80;96.80;;;;;;6213404;23;20003;-84
2022/12/06 05:11:55;;;;;;;18.88;12.20;;;8.80;97.40;;;;;;6214451;23;20001;-84
2022/12/06 05:14:21;;;;;;;19.40;11.65;;;8.90;97.20;;;;;;6213440;23;20008;-84
2022/12/06 05:16:46;;;;;;;60.72;15.55;;;9.00;97.10;;;;;;6212589;23;20024;-84
2022/12/06 05:19:13;;;;;;;46.15;14.25;;;8.90;97.00;;;;;;6213975;23;20008;-83
2022/12/06 05:21:39;;;;;;;15.52;11.55;;;8.90;97.40;;;;;;6213555;23;20039;-84
2022/12/06 05:24:05;;;;;;;38.10;15.63;;;8.90;97.10;;;;;;6214099;23;20428;-84
2022/12/06 05:26:31;;;;;;;17.40;12.60;;;8.90;97.00;;;;;;6187642;23;20004;-82
2022/12/06 05:28:57;;;;;;;21.58;12.02;;;9.00;97.10;;;;;;6213821;23;20392;-82
2022/12/06 05:31:24;;;;;;;31.30;14.85;;;9.00;96.60;;;;;;6212518;23;20281;-89
2022/12/06 05:33:50;;;;;;;19.52;12.18;;;9.00;96.60;;;;;;6213962;23;20088;-87
2022/12/06 05:36:19;;;;;;;13.55;10.70;;;8.90;96.80;;;;;;6213148;23;20004;-89
2022/12/06 05:38:46;;;;;;;20.08;13.35;;;8.90;96.70;;;;;;6214233;23;20072;-89
2022/12/06 05:41:12;;;;;;;27.60;15.68;;;8.90;96.50;;;;;;6214850;23;20004;-89
2022/12/06 05:43:38;;;;;;;15.55;10.13;;;8.90;96.40;;;;;;6213960;23;20028;-91
2022/12/06 05:46:04;;;;;;;18.73;11.65;;;;;;;;;;6215376;23;20008;-89
2022/12/06 05:48:30;;;;;;;23.58;13.63;;;8.80;96.50;;;;;;6214774;23;20005;-89
2022/12/06 05:50:55;;;;;;;28.90;14.88;;;8.80;96.60;;;;;;6214972;23;20004;-88
2022/12/06 05:53:21;;;;;;;27.60;14.32;;;8.80;96.60;;;;;;6214351;23;20000;-80
2022/12/06 05:55:47;;;;;;;19.10;12.13;;;8.80;96.90;;;;;;6214073;23;20485;-80
2022/12/06 05:58:13;;;;;;;18.27;13.00;;;8.90;96.70;;;;;;6213667;23;19997;-79
2022/12/06 06:00:39;;;;;;;19.50;12.20;;;8.90;96.90;;;;;;6214491;23;20001;-79
2022/12/06 06:03:05;;;;;;;21.90;13.30;;;8.90;96.80;;;;;;6212265;23;20686;-79
2022/12/06 06:05:30;;;;;;;21.05;13.02;;;8.90;96.70;;;;;;6214180;23;19996;-79
2022/12/06 06:07:56;;;;;;;23.63;14.48;;;9.00;96.80;;;;;;6213836;23;20001;-79
2022/12/06 06:10:22;;;;;;;35.83;17.63;;;9.00;96.80;;;;;;6214949;23;20086;-80
2022/12/06 06:12:48;;;;;;;20.50;13.88;;;9.00;96.60;;;;;;6213451;23;20004;-81
2022/12/06 06:15:14;;;;;;;16.27;12.35;;;9.00;96.60;;;;;;6213557;23;19996;-82
2022/12/06 06:17:42;;;;;;;19.45;13.93;;;9.00;96.70;;;;;;6213571;23;20044;-82
2022/12/06 06:20:08;;;;;;;18.83;13.15;;;9.00;96.40;;;;;;6212820;23;20008;-82
2022/12/06 06:22:37;;;;;;;19.88;14.40;;;9.00;96.50;;;;;;6214445;23;20427;-81
2022/12/06 06:25:04;;;;;;;17.30;12.05;;;9.00;96.60;;;;;;6188452;23;20331;-82
2022/12/06 06:27:36;;;;;;;25.73;16.02;;;8.90;96.50;;;;;;6216831;23;20062;-83
2022/12/06 06:30:09;;;;;;;27.08;16.30;;;9.00;96.50;;;;;;6216187;23;20004;-84
2022/12/06 06:32:35;;;;;;;14.88;11.65;;;8.90;96.40;;;;;;6216285;23;20083;-82
2022/12/06 06:35:01;;;;;;;15.55;11.73;;;8.90;96.40;;;;;;6216813;23;20110;-82
2022/12/06 06:37:27;;;;;;;18.02;12.45;;;8.90;96.60;;;;;;6216279;23;20490;-84
2022/12/06 06:39:53;;;;;;;21.60;13.00;;;8.90;96.30;;;;;;6216390;23;20008;-83
2022/12/06 06:42:18;;;;;;;23.90;13.10;;;8.90;96.70;;;;;;6189856;23;20011;-83
2022/12/06 06:44:44;;;;;;;15.18;11.25;;;9.00;96.50;;;;;;6215657;23;20012;-79
2022/12/06 06:47:10;;;;;;;17.25;12.82;;;8.90;96.50;;;;;;6215383;23;20657;-80
2022/12/06 06:49:36;;;;;;;16.35;12.15;;;;;;;;;;6215792;23;20071;-80
2022/12/06 06:52:02;;;;;;;16.40;12.23;;;9.10;96.50;;;;;;6215618;23;20004;-79
2022/12/06 06:54:27;;;;;;;20.63;11.77;;;9.10;96.30;;;;;;6215783;23;20007;-85
2022/12/06 06:56:57;;;;;;;17.30;12.25;;;9.20;96.30;;;;;;6215824;23;20000;-82
2022/12/06 06:59:24;;;;;;;103.88;17.38;;;9.20;96.50;;;;;;6216156;23;20000;-80
2022/12/06 07:01:50;;;;;;;84.82;16.92;;;9.00;95.70;;;;;;6216101;23;20037;-79
2022/12/06 07:04:16;;;;;;;54.15;14.48;;;8.90;96.20;;;;;;6189364;23;20047;-79
2022/12/06 07:06:42;;;;;;;77.15;15.38;;;;;;;;;;6215909;23;20001;-79
2022/12/06 07:09:08;;;;;;;57.95;14.57;;;8.70;96.60;;;;;;6215546;23;20328;-80
2022/12/06 07:11:34;;;;;;;38.90;13.30;;;8.60;96.60;;;;;;6216487;23;20111;-80
2022/12/06 07:14:01;;;;;;;23.15;12.00;;;8.70;96.80;;;;;;6216129;23;20008;-80
2022/12/06 07:16:27;;;;;;;18.00;11.55;;;8.80;96.80;;;;;;6174707;23;20340;-79
2022/12/06 07:18:53;;;;;;;24.48;11.30;;;8.80;96.80;;;;;;6185803;23;20072;-79
2022/12/06 07:21:20;;;;;;;26.33;12.57;;;8.80;96.90;;;;;;6185791;23;20001;-79
2022/12/06 07:23:46;;;;;;;53.88;14.63;;;8.80;96.90;;;;;;6185954;23;20436;-79
2022/12/06 07:26:14;;;;;;;16.00;10.90;;;8.80;96.80;;;;;;6185811;23;20008;-79
2022/12/06 07:28:42;;;;;;;25.13;12.77;;;8.80;96.90;;;;;;6186047;23;20005;-79
2022/12/06 07:31:12;;;;;;;50.58;14.95;;;8.70;97.00;;;;;;6186342;23;20061;-79
2022/12/06 07:33:38;;;;;;;17.67;12.38;;;8.60;96.70;;;;;;6186039;23;20052;-79
2022/12/06 07:36:05;;;;;;;17.73;11.90;;;8.70;97.10;;;;;;6185355;23;20005;-79
2022/12/06 07:38:30;;;;;;;22.65;12.57;;;8.70;97.10;;;;;;6185370;23;20005;-81
2022/12/06 07:44:59;;;;;;;27.17;11.40;;;8.70;96.90;;;;;;6185690;23;20471;-81
2022/12/06 07:46:35;;;;;;;19.95;13.10;;;8.80;97.10;;;;;;6185542;23;20035;-80
2022/12/06 07:49:00;;;;;;;23.75;13.27;;;8.80;97.00;;;;;;6185739;23;19997;-80
2022/12/06 07:51:26;;;;;;;26.05;12.57;;;8.80;97.20;;;;;;6185884;23;20081;-79
2022/12/06 07:53:52;;;;;;;35.60;14.10;;;8.80;97.20;;;;;;6185562;23;19997;-80
2022/12/06 07:56:18;;;;;;;25.88;14.05;;;8.80;97.00;;;;;;6185986;23;20400;-80
2022/12/06 07:58:44;;;;;;;27.75;14.07;;;8.90;97.10;;;;;;6185329;23;20005;-79
2022/12/06 08:01:09;;;;;;;44.25;15.32;;;8.90;97.00;;;;;;6185119;23;20001;-80
2022/12/06 08:03:35;;;;;;;30.00;14.13;;;8.90;97.30;;;;;;6185269;23;20055;-80
2022/12/06 08:06:01;;;;;;;40.60;15.82;;;8.90;97.20;;;;;;6185472;23;20060;-80
2022/12/06 08:08:26;;;;;;;23.90;13.77;;;8.80;97.40;;;;;;6185323;23;20400;-79
2022/12/06 08:10:52;;;;;;;44.67;16.25;;;8.90;97.60;;;;;;6185557;23;20327;-79
2022/12/06 08:13:18;;;;;;;24.02;13.70;;;9.00;97.50;;;;;;6185263;23;20376;-80
2022/12/06 08:15:43;;;;;;;22.85;13.30;;;9.00;97.40;;;;;;6190799;23;20012;-79
2022/12/06 08:18:10;;;;;;;21.85;13.07;;;;;;;;;;6215965;23;20001;-80
2022/12/06 08:20:37;;;;;;;48.53;15.15;;;9.10;97.30;;;;;;6189118;23;20055;-80
2022/12/06 08:23:03;;;;;;;20.25;12.57;;;9.10;97.40;;;;;;6215657;23;20001;-79
2022/12/06 08:25:29;;;;;;;18.45;12.65;;;9.10;97.40;;;;;;6188978;23;20426;-81
2022/12/06 08:27:54;;;;;;;23.95;13.23;;;9.20;97.40;;;;;;6214830;23;20008;-81
2022/12/06 08:30:30;;;;;;;20.52;13.05;;;;;;;;;;6215499;23;20362;-81
2022/12/06 08:32:56;;;;;;;28.30;14.43;;;9.30;97.10;;;;;;6214976;23;20075;-81
2022/12/06 08:35:21;;;;;;;31.88;15.85;;;9.30;97.30;;;;;;6215088;23;20031;-81
2022/12/06 08:37:47;;;;;;;39.25;15.52;;;9.40;97.10;;;;;;6215248;23;20008;-81
2022/12/06 08:40:13;;;;;;;18.85;12.43;;;9.30;97.10;;;;;;6215362;23;20071;-81
2022/12/06 08:42:40;;;;;;;23.33;14.13;;;9.30;97.20;;;;;;6215017;23;20091;-81
2022/12/06 08:45:07;;;;;;;27.15;14.70;;;9.30;97.20;;;;;;6213046;23;20028;-80
2022/12/06 08:47:33;;;;;;;25.77;15.10;;;9.40;97.10;;;;;;6202957;23;20123;-79
2022/12/06 08:49:58;;;;;;;31.08;15.70;;;9.30;97.00;;;;;;6210838;23;20360;-80
2022/12/06 08:52:24;;;;;;;31.92;16.95;;;9.30;96.90;;;;;;6209466;23;20001;-79
2022/12/06 08:54:50;;;;;;;25.17;15.50;;;9.40;97.20;;;;;;6213137;23;20000;-79
2022/12/06 08:57:15;;;;;;;33.05;18.27;;;9.40;97.30;;;;;;6214510;23;20007;-79
2022/12/06 08:59:41;;;;;;;30.25;18.17;;;9.40;97.30;;;;;;6187361;23;20012;-79
2022/12/06 09:02:09;;;;;;;29.70;17.23;;;9.40;97.30;;;;;;6214994;23;20000;-79
2022/12/06 09:04:35;;;;;;;27.73;17.08;;;9.40;97.40;;;;;;6214841;23;20009;-79
2022/12/06 09:07:01;;;;;;;31.45;17.88;;;9.50;97.40;;;;;;6188143;23;20123;-80
2022/12/06 09:09:26;;;;;;;33.78;19.55;;;9.50;97.50;;;;;;6188206;23;20001;-79
2022/12/06 09:11:52;;;;;;;36.50;19.63;;;9.60;97.40;;;;;;6188160;23;20016;-80
2022/12/06 09:14:18;;;;;;;33.60;19.05;;;9.50;97.40;;;;;;6215370;23;20011;-79
2022/12/06 09:16:44;;;;;;;37.33;19.90;;;9.60;97.40;;;;;;6214652;23;20083;-79
2022/12/06 09:19:12;;;;;;;28.80;17.23;;;9.60;97.30;;;;;;6188864;23;20021;-79
2022/12/06 09:21:41;;;;;;;30.95;18.77;;;9.60;97.40;;;;;;6215203;23;20328;-80
2022/12/06 09:24:13;;;;;;;31.83;19.35;;;9.70;97.40;;;;;;6215477;23;20415;-79
2022/12/06 09:26:39;;;;;;;35.28;19.38;;;9.70;97.40;;;;;;6187886;23;20005;-79
2022/12/06 09:29:05;;;;;;;29.15;17.67;;;9.80;97.50;;;;;;6188007;23;20004;-81
2022/12/06 09:31:30;;;;;;;28.70;17.50;;;9.80;97.40;;;;;;6214887;23;20123;-81
2022/12/06 09:33:56;;;;;;;36.28;20.30;;;9.80;97.30;;;;;;6213956;23;20001;-81
2022/12/06 09:36:24;;;;;;;38.83;22.52;;;9.80;97.30;;;;;;6214719;23;20000;-81
2022/12/06 09:38:59;;;;;;;45.45;23.63;;;9.80;97.20;;;;;;6214864;23;20411;-81
2022/12/06 09:42:10;;;;;;;33.50;19.80;;;9.80;97.00;;;;;;6214765;23;20013;-82
2022/12/06 09:44:45;;;;;;;35.22;18.73;;;9.80;97.30;;;;;;6215321;23;20001;-81
2022/12/06 09:47:51;;;;;;;36.53;19.33;;;9.80;97.20;;;;;;6214945;23;20016;-80
2022/12/06 09:50:44;;;;;;;28.63;17.48;;;9.70;97.30;;;;;;6214611;23;20024;-80
2022/12/06 09:53:33;;;;;;;39.55;18.85;;;9.70;97.20;;;;;;6215277;23;20370;-80
2022/12/06 09:56:09;;;;;;;31.63;17.95;;;9.80;97.10;;;;;;6214974;23;20004;-80
2022/12/06 09:58:44;;;;;;;30.38;17.02;;;9.80;97.20;;;;;;6214565;23;20053;-80
2022/12/06 10:01:25;;;;;;;32.10;19.15;;;9.80;97.10;;;;;;6216564;23;20000;-80
2022/12/06 10:03:57;;;;;;;35.35;18.55;;;9.60;96.90;;;;;;6217128;23;20079;-79
2022/12/06 10:06:29;;;;;;;35.78;19.55;;;9.60;97.20;;;;;;6217150;23;20008;-79
2022/12/06 10:09:12;;;;;;;26.65;15.73;;;9.60;97.20;;;;;;6216771;23;20031;-80
2022/12/06 10:11:40;;;;;;;29.08;17.17;;;9.60;97.30;;;;;;6190631;23;20000;-80
2022/12/06 10:14:12;;;;;;;31.83;18.45;;;9.70;97.40;;;;;;6190427;23;20000;-80
2022/12/06 10:16:55;;;;;;;32.35;17.83;;;9.60;97.30;;;;;;6216739;23;20017;-80
2022/12/06 10:19:47;;;;;;;35.15;19.25;;;9.70;97.20;;;;;;6216582;23;20008;-80
2022/12/06 10:22:47;;;;;;;37.47;20.50;;;9.60;97.20;;;;;;6187849;23;20411;-80
2022/12/06 10:25:21;;;;;;;;;;;9.70;97.10;;;;;;6217346;23;20005;-81
2022/12/06 10:28:09;;;;;;;36.17;19.48;;;9.50;97.30;;;;;;6216718;23;19998;-80
2022/12/06 10:30:51;;;;;;;25.60;15.73;;;9.50;97.30;;;;;;6216922;23;19997;-79
2022/12/06 10:33:32;;;;;;;36.47;19.58;;;9.60;97.40;;;;;;6216615;23;20001;-80
2022/12/06 10:36:02;;;;;;;29.88;17.05;;;9.50;97.20;;;;;;6216708;23;20054;-79
2022/12/06 10:39:09;;;;;;;28.55;17.17;;;9.60;97.50;;;;;;6217043;23;20070;-79
2022/12/06 10:41:43;;;;;;;29.85;18.63;;;9.60;97.50;;;;;;6181377;23;20079;-79
2022/12/06 10:44:19;;;;;;;25.90;16.27;;;9.70;97.40;;;;;;6216986;23;20003;-79
2022/12/06 10:47:03;;;;;;;26.75;16.42;;;9.80;97.50;;;;;;6215778;23;20009;-80
2022/12/06 10:49:38;;;;;;;31.88;19.05;;;9.80;97.30;;;;;;6215810;23;20050;-78
2022/12/06 10:52:12;;;;;;;26.40;16.70;;;9.80;97.10;;;;;;6216355;23;20426;-79
2022/12/06 10:54:54;;;;;;;35.17;21.98;;;9.70;97.10;;;;;;6216282;23;20075;-76
2022/12/06 10:57:46;;;;;;;32.58;19.08;;;9.80;97.10;;;;;;6189209;23;20013;-83
2022/12/06 11:00:24;;;;;;;27.60;16.55;;;9.80;97.20;;;;;;6216321;23;19996;-82
2022/12/06 11:03:41;;;;;;;26.65;16.98;;;9.90;97.20;;;;;;6216601;23;20323;-82
2022/12/06 11:06:16;;;;;;;30.40;19.35;;;10.00;97.10;;;;;;6165820;23;20004;-81
2022/12/06 11:08:51;;;;;;;27.55;17.77;;;10.00;96.60;;;;;;6215764;23;20001;-81
2022/12/06 11:11:24;;;;;;;26.75;16.73;;;10.20;96.90;;;;;;6189772;23;20415;-83
2022/12/06 11:13:58;;;;;;;26.52;16.65;;;10.10;96.60;;;;;;6212715;23;20420;-82
2022/12/06 11:16:31;;;;;;;28.55;18.08;;;10.30;96.80;;;;;;6214980;23;20017;-82
2022/12/06 11:19:24;;;;;;;27.02;16.75;;;10.30;96.60;;;;;;6216306;23;20030;-82
2022/12/06 11:22:13;;;;;;;30.20;17.33;;;10.40;96.60;;;;;;6199321;23;20416;-82
2022/12/06 11:24:51;;;;;;;32.33;19.42;;;10.40;96.50;;;;;;6215801;23;20453;-82
2022/12/06 11:27:30;;;;;;;26.55;17.35;;;10.30;96.30;;;;;;6215564;23;20051;-81
2022/12/06 11:29:56;;;;;;;29.05;17.90;;;10.40;96.20;;;;;;6216039;23;20027;-82
2022/12/06 11:32:22;;;;;;;28.27;17.70;;;10.40;96.00;;;;;;6215869;23;19996;-82
2022/12/06 11:34:52;;;;;;;31.60;20.63;;;10.50;96.20;;;;;;6215591;23;20007;-82
2022/12/06 11:37:25;;;;;;;35.00;21.33;;;10.50;96.10;;;;;;6216034;23;20423;-83
2022/12/06 11:39:57;;;;;;;30.33;18.70;;;10.50;95.70;;;;;;6210433;23;20005;-82
2022/12/06 11:42:26;;;;;;;28.55;17.45;;;10.50;96.00;;;;;;6215299;23;20075;-82
2022/12/06 11:44:58;;;;;;;29.33;19.75;;;10.60;96.00;;;;;;6188303;23;20009;-82
2022/12/06 11:47:24;;;;;;;32.75;19.92;;;10.70;95.70;;;;;;6215337;23;20406;-83
2022/12/06 11:49:54;;;;;;;28.33;17.88;;;10.70;95.20;;;;;;6215421;23;20001;-82
2022/12/06 11:52:36;;;;;;;30.55;19.35;;;10.70;95.40;;;;;;6215533;23;20005;-81
2022/12/06 11:55:14;;;;;;;24.38;17.20;;;10.80;95.60;;;;;;6214722;23;20404;-81
2022/12/06 11:58:04;;;;;;;26.98;17.73;;;10.70;95.20;;;;;;6215288;23;20510;-82
2022/12/06 12:00:29;;;;;;;26.23;17.30;;;10.90;95.30;;;;;;6199261;23;20015;-82
2022/12/06 12:02:56;;;;;;;28.65;17.83;;;11.00;95.30;;;;;;6215166;23;20504;-82
2022/12/06 12:05:30;;;;;;;30.27;19.50;;;11.10;95.30;;;;;;6213023;23;20343;-82
2022/12/06 12:08:18;;;;;;;28.58;19.02;;;11.10;95.10;;;;;;6213592;23;20416;-81
2022/12/06 12:10:45;;;;;;;27.27;18.27;;;11.20;94.90;;;;;;6213534;23;20430;-82
2022/12/06 12:16:02;;;;;;;28.17;19.70;;;11.20;94.80;;;;;;6214134;23;20334;-82
2022/12/06 12:18:36;;;;;;;34.22;21.15;;;11.20;94.80;;;;;;6214808;23;20005;-82
2022/12/06 12:21:05;;;;;;;28.40;18.75;;;10.90;94.00;;;;;;6215142;23;19996;-81
2022/12/06 12:23:30;;;;;;;26.63;17.83;;;10.90;94.40;;;;;;6214037;23;20632;-81
2022/12/06 12:26:02;;;;;;;31.58;18.77;;;10.90;94.60;;;;;;6187594;23;20074;-81
2022/12/06 12:28:31;;;;;;;32.22;20.77;;;11.00;94.70;;;;;;6214891;23;20308;-82
2022/12/06 12:30:59;;;;;;;27.40;18.65;;;11.00;94.60;;;;;;6214217;23;20009;-82
2022/12/06 12:33:26;;;;;;;29.60;19.42;;;11.10;94.40;;;;;;6214765;23;20005;-82
2022/12/06 12:35:56;;;;;;;26.33;17.90;;;11.10;94.60;;;;;;6213903;23;20350;-81
2022/12/06 12:38:34;;;;;;;30.05;19.25;;;11.00;94.30;;;;;;6215368;23;20027;-82
2022/12/06 12:41:04;;;;;;;24.88;17.40;;;11.00;94.60;;;;;;6219373;23;20008;-82
2022/12/06 12:43:32;;;;;;;27.20;17.20;;;11.10;94.60;;;;;;6216101;23;20026;-82
2022/12/06 12:46:09;;;;;;;24.98;16.48;;;11.10;94.50;;;;;;6219033;23;20000;-83
2022/12/06 12:48:36;;;;;;;29.50;18.33;;;11.20;94.60;;;;;;6217000;23;20023;-81
2022/12/06 12:51:20;;;;;;;26.42;17.42;;;11.30;94.70;;;;;;6214006;23;20000;-80
2022/12/06 12:53:48;;;;;;;24.42;17.17;;;11.30;94.50;;;;;;6215153;23;20003;-83
2022/12/06 12:56:16;;;;;;;26.02;17.77;;;11.40;94.30;;;;;;6185833;23;20005;-82
2022/12/06 12:58:45;;;;;;;27.05;18.02;;;11.40;94.20;;;;;;6213615;23;20439;-81
2022/12/06 13:01:44;;;;;;;25.60;17.40;;;11.40;94.10;;;;;;6213383;23;20429;-79
2022/12/06 13:04:30;;;;;;;27.55;17.90;;;11.40;94.00;;;;;;6206745;23;20069;-81
2022/12/06 13:07:04;;;;;;;26.08;17.45;;;11.50;93.90;;;;;;6190430;23;20005;-81
2022/12/06 13:09:53;;;;;;;24.95;16.88;;;11.40;93.50;;;;;;6215238;23;20008;-78
2022/12/06 13:12:32;;;;;;;26.63;18.20;;;11.50;93.60;;;;;;6214356;23;20000;-78
2022/12/06 13:15:10;;;;;;;25.83;17.17;;;11.40;93.50;;;;;;6214662;23;20315;-77
2022/12/06 13:17:38;;;;;;;26.73;18.40;;;11.50;93.60;;;;;;6212992;23;20044;-78
2022/12/06 13:20:30;;;;;;;32.30;21.00;;;11.40;93.40;;;;;;6214839;23;20000;-78